createdAt,value
2019-02-11T00:00:36.772Z,0
2019-02-11T00:01:37.342Z,0
2019-02-11T00:02:37.915Z,0
2019-02-11T00:03:38.481Z,0
2019-02-11T00:04:39.049Z,0
2019-02-11T00:05:39.612Z,0
2019-02-11T00:06:40.179Z,0
2019-02-11T00:07:40.744Z,0
2019-02-11T00:08:41.311Z,0
2019-02-11T00:09:41.873Z,0
2019-02-11T00:10:42.441Z,0
2019-02-11T00:11:43.016Z,0
2019-02-11T00:12:43.580Z,0
2019-02-11T00:13:44.144Z,0
2019-02-11T00:14:44.711Z,0
2019-02-11T00:15:45.274Z,0
2019-02-11T00:16:45.837Z,0
2019-02-11T00:17:46.402Z,0
2019-02-11T00:18:46.966Z,0
2019-02-11T00:19:47.532Z,0
2019-02-11T00:20:48.097Z,0
2019-02-11T00:21:48.662Z,0
2019-02-11T00:22:49.238Z,0
2019-02-11T00:23:49.805Z,0
2019-02-11T00:24:50.369Z,0
2019-02-11T00:25:50.948Z,0
2019-02-11T00:26:51.509Z,0
2019-02-11T00:27:52.074Z,0
2019-02-11T00:28:52.639Z,0
2019-02-11T00:29:53.202Z,0
2019-02-11T00:30:53.769Z,0
2019-02-11T00:31:54.332Z,0
2019-02-11T00:32:54.990Z,0
2019-02-11T00:33:55.522Z,0
2019-02-11T00:34:56.088Z,0
2019-02-11T00:35:56.669Z,0
2019-02-11T00:36:57.234Z,0
2019-02-11T00:37:57.797Z,0
2019-02-11T00:38:58.363Z,0
2019-02-11T00:39:58.929Z,0
2019-02-11T00:40:59.493Z,0
2019-02-11T00:42:00.061Z,0
2019-02-11T00:43:00.627Z,0
2019-02-11T00:44:01.201Z,0
2019-02-11T00:45:01.768Z,0
2019-02-11T00:46:02.635Z,0
2019-02-11T00:47:03.200Z,0
2019-02-11T00:48:03.765Z,0
2019-02-11T00:49:04.333Z,0
2019-02-11T00:50:04.895Z,0
2019-02-11T00:51:05.711Z,0
2019-02-11T00:52:06.276Z,0
2019-02-11T00:53:06.843Z,0
2019-02-11T00:54:07.411Z,0
2019-02-11T00:55:07.975Z,0
2019-02-11T00:56:08.539Z,0
2019-02-11T00:57:09.115Z,0
2019-02-11T00:58:09.679Z,0
2019-02-11T00:59:10.244Z,0
2019-02-11T01:00:10.809Z,0
2019-02-11T01:01:11.374Z,0
2019-02-11T01:02:11.937Z,0
2019-02-11T01:03:12.503Z,0
2019-02-11T01:04:13.080Z,0
2019-02-11T01:05:13.657Z,0
2019-02-11T01:06:14.231Z,0
2019-02-11T01:07:14.806Z,0
2019-02-11T01:08:15.372Z,0
2019-02-11T01:09:15.947Z,0
2019-02-11T01:10:16.512Z,0
2019-02-11T01:11:17.077Z,0
2019-02-11T01:12:17.646Z,0
2019-02-11T01:13:18.208Z,0
2019-02-11T01:14:18.784Z,0
2019-02-11T01:15:19.350Z,0
2019-02-11T01:16:19.926Z,0
2019-02-11T01:17:20.503Z,0
2019-02-11T01:18:21.069Z,0
2019-02-11T01:19:21.635Z,0
2019-02-11T01:20:22.202Z,0
2019-02-11T01:21:22.768Z,0
2019-02-11T01:22:23.386Z,0
2019-02-11T01:23:23.898Z,0
2019-02-11T01:24:24.463Z,0
2019-02-11T01:25:25.028Z,0
2019-02-11T01:26:25.596Z,0
2019-02-11T01:27:26.160Z,0
2019-02-11T01:28:26.727Z,0
2019-02-11T01:29:27.290Z,0
2019-02-11T01:30:27.856Z,0
2019-02-11T01:31:28.420Z,0
2019-02-11T01:32:28.988Z,0
2019-02-11T01:33:29.556Z,0
2019-02-11T01:34:30.131Z,0
2019-02-11T01:35:30.695Z,0
2019-02-11T01:36:31.263Z,0
2019-02-11T01:37:31.829Z,0
2019-02-11T01:38:32.391Z,0
2019-02-11T01:39:32.960Z,0
2019-02-11T01:40:33.523Z,0
2019-02-11T01:41:34.091Z,0
2019-02-11T01:42:34.656Z,0
2019-02-11T01:43:36.302Z,0
2019-02-11T01:44:36.782Z,0
2019-02-11T01:45:37.349Z,0
2019-02-11T01:46:37.914Z,0
2019-02-11T01:47:38.481Z,0
2019-02-11T01:48:39.046Z,0
2019-02-11T01:49:39.610Z,0
2019-02-11T01:50:40.176Z,0
2019-02-11T01:51:40.743Z,0
2019-02-11T01:52:41.312Z,0
2019-02-11T01:53:41.885Z,0
2019-02-11T01:54:42.449Z,0
2019-02-11T01:55:43.016Z,0
2019-02-11T01:56:43.582Z,0
2019-02-11T01:57:44.149Z,0
2019-02-11T01:58:44.717Z,0
2019-02-11T01:59:45.284Z,0
2019-02-11T02:00:45.846Z,0
2019-02-11T02:01:46.517Z,0
2019-02-11T02:02:47.081Z,0
2019-02-11T02:03:47.645Z,0
2019-02-11T02:04:48.212Z,0
2019-02-11T02:05:48.776Z,0
2019-02-11T02:06:49.347Z,0
2019-02-11T02:07:49.910Z,0
2019-02-11T02:08:50.484Z,0
2019-02-11T02:09:51.049Z,0
2019-02-11T02:10:51.615Z,0
2019-02-11T02:11:52.178Z,0
2019-02-11T02:12:52.743Z,0
2019-02-11T02:13:53.308Z,0
2019-02-11T02:14:53.874Z,0
2019-02-11T02:15:54.436Z,0
2019-02-11T02:16:55.004Z,0
2019-02-11T02:17:55.566Z,0
2019-02-11T02:18:56.132Z,0
2019-02-11T02:19:56.708Z,0
2019-02-11T02:20:57.271Z,0
2019-02-11T02:21:57.989Z,0
2019-02-11T02:22:58.557Z,0
2019-02-11T02:23:59.122Z,0
2019-02-11T02:24:59.688Z,0
2019-02-11T02:26:00.252Z,0
2019-02-11T02:27:00.818Z,0
2019-02-11T02:28:01.383Z,0
2019-02-11T02:29:01.949Z,0
2019-02-11T02:30:02.514Z,0
2019-02-11T02:31:03.087Z,0
2019-02-11T02:32:03.655Z,0
2019-02-11T02:33:04.219Z,0
2019-02-11T02:34:04.789Z,0
2019-02-11T02:35:05.363Z,0
2019-02-11T02:36:05.928Z,0
2019-02-11T02:37:06.493Z,0
2019-02-11T02:38:07.056Z,0
2019-02-11T02:39:07.669Z,0
2019-02-11T02:40:08.189Z,0
2019-02-11T02:41:08.757Z,0
2019-02-11T02:42:09.321Z,0
2019-02-11T02:43:09.881Z,0
2019-02-11T02:44:10.447Z,0
2019-02-11T02:45:11.020Z,0
2019-02-11T02:46:11.576Z,0
2019-02-11T02:47:12.140Z,0
2019-02-11T02:48:12.711Z,0
2019-02-11T02:49:13.277Z,0
2019-02-11T02:50:13.837Z,0
2019-02-11T02:51:14.402Z,0
2019-02-11T02:52:14.968Z,0
2019-02-11T02:53:15.531Z,0
2019-02-11T02:54:16.099Z,0
2019-02-11T02:55:16.673Z,0
2019-02-11T02:56:17.262Z,0
2019-02-11T02:57:17.807Z,0
2019-02-11T02:58:18.372Z,0
2019-02-11T02:59:18.939Z,0
2019-02-11T03:00:19.507Z,0
2019-02-11T03:01:20.072Z,0
2019-02-11T03:02:20.736Z,0
2019-02-11T03:03:21.304Z,0
2019-02-11T03:04:21.904Z,0
2019-02-11T03:05:22.447Z,0
2019-02-11T03:06:23.012Z,0
2019-02-11T03:07:23.581Z,0
2019-02-11T03:08:24.145Z,0
2019-02-11T03:09:24.721Z,0
2019-02-11T03:10:25.283Z,0
2019-02-11T03:11:25.875Z,0
2019-02-11T03:12:26.418Z,0
2019-02-11T03:13:26.992Z,0
2019-02-11T03:14:27.559Z,0
2019-02-11T03:15:28.125Z,0
2019-02-11T03:16:28.703Z,0
2019-02-11T03:17:29.269Z,0
2019-02-11T03:18:29.844Z,0
2019-02-11T03:19:30.409Z,0
2019-02-11T03:20:30.974Z,0
2019-02-11T03:21:31.544Z,0
2019-02-11T03:22:32.107Z,0
2019-02-11T03:23:32.674Z,0
2019-02-11T03:24:33.239Z,0
2019-02-11T03:25:33.870Z,0
2019-02-11T03:26:34.368Z,0
2019-02-11T03:27:35.034Z,0
2019-02-11T03:28:35.600Z,0
2019-02-11T03:29:36.165Z,0
2019-02-11T03:30:36.733Z,0
2019-02-11T03:31:37.297Z,0
2019-02-11T03:32:37.887Z,0
2019-02-11T03:33:38.452Z,0
2019-02-11T03:34:39.008Z,0
2019-02-11T03:35:39.572Z,0
2019-02-11T03:36:40.139Z,0
2019-02-11T03:37:40.706Z,0
2019-02-11T03:38:41.272Z,0
2019-02-11T03:39:41.848Z,0
2019-02-11T03:40:42.413Z,0
2019-02-11T03:41:42.977Z,0
2019-02-11T03:42:43.540Z,0
2019-02-11T03:43:44.104Z,0
2019-02-11T03:44:44.668Z,0
2019-02-11T03:45:45.235Z,0
2019-02-11T03:46:45.800Z,0
2019-02-11T03:47:46.364Z,0
2019-02-11T03:48:46.929Z,0
2019-02-11T03:49:47.495Z,0
2019-02-11T03:50:48.062Z,0
2019-02-11T03:51:48.624Z,0
2019-02-11T03:52:49.191Z,0
2019-02-11T03:53:49.755Z,0
2019-02-11T03:54:50.323Z,0
2019-02-11T03:55:50.885Z,0
2019-02-11T03:56:51.465Z,0
2019-02-11T03:57:52.027Z,0
2019-02-11T03:58:52.595Z,0
2019-02-11T03:59:53.169Z,0
2019-02-11T04:00:53.732Z,0
2019-02-11T04:01:54.296Z,0
2019-02-11T04:02:54.863Z,0
2019-02-11T04:03:55.440Z,0
2019-02-11T04:04:56.021Z,0
2019-02-11T04:05:56.598Z,0
2019-02-11T04:06:57.154Z,0
2019-02-11T04:07:57.719Z,0
2019-02-11T04:08:58.287Z,0
2019-02-11T04:09:58.851Z,0
2019-02-11T04:10:59.421Z,0
2019-02-11T04:11:59.982Z,0
2019-02-11T04:13:00.553Z,0
2019-02-11T04:14:01.114Z,0
2019-02-11T04:15:01.692Z,0
2019-02-11T04:16:02.257Z,0
2019-02-11T04:17:02.822Z,0
2019-02-11T04:18:03.389Z,0
2019-02-11T04:19:03.955Z,0
2019-02-11T04:20:04.524Z,0
2019-02-11T04:21:05.100Z,0
2019-02-11T04:22:05.664Z,0
2019-02-11T04:23:06.229Z,0
2019-02-11T04:24:06.795Z,0
2019-02-11T04:25:07.358Z,0
2019-02-11T04:26:07.924Z,0
2019-02-11T04:27:08.489Z,0
2019-02-11T04:28:09.063Z,0
2019-02-11T04:29:09.630Z,0
2019-02-11T04:30:10.198Z,0
2019-02-11T04:31:10.763Z,0
2019-02-11T04:32:11.339Z,0
2019-02-11T04:33:11.901Z,0
2019-02-11T04:34:12.467Z,0
2019-02-11T04:35:13.034Z,0
2019-02-11T04:36:13.601Z,0
2019-02-11T04:37:14.166Z,0
2019-02-11T04:38:14.742Z,0
2019-02-11T04:39:15.309Z,0
2019-02-11T04:40:15.879Z,0
2019-02-11T04:41:16.448Z,0
2019-02-11T04:42:17.015Z,0
2019-02-11T04:43:17.732Z,0
2019-02-11T04:44:18.301Z,0
2019-02-11T04:45:18.863Z,0
2019-02-11T04:46:19.432Z,0
2019-02-11T04:47:19.995Z,0
2019-02-11T04:48:20.560Z,0
2019-02-11T04:49:21.127Z,0
2019-02-11T04:50:21.690Z,0
2019-02-11T04:51:22.256Z,0
2019-02-11T04:52:22.822Z,0
2019-02-11T04:53:23.387Z,0
2019-02-11T04:54:23.952Z,0
2019-02-11T04:55:24.516Z,0
2019-02-11T04:56:25.085Z,0
2019-02-11T04:57:25.646Z,0
2019-02-11T04:58:26.213Z,0
2019-02-11T04:59:26.776Z,0
2019-02-11T05:00:27.341Z,0
2019-02-11T05:01:27.907Z,0
2019-02-11T05:02:28.471Z,0
2019-02-11T05:03:29.038Z,0
2019-02-11T05:04:29.603Z,0
2019-02-11T05:05:30.167Z,0
2019-02-11T05:06:30.731Z,0
2019-02-11T05:07:31.298Z,0
2019-02-11T05:08:31.860Z,0
2019-02-11T05:09:32.425Z,0
2019-02-11T05:10:32.990Z,0
2019-02-11T05:11:33.556Z,0
2019-02-11T05:12:34.121Z,0
2019-02-11T05:13:34.698Z,0
2019-02-11T05:14:43.520Z,0
2019-02-11T05:15:36.822Z,0
2019-02-11T05:16:37.386Z,0
2019-02-11T05:17:37.953Z,0
2019-02-11T05:18:38.531Z,0
2019-02-11T05:19:39.101Z,0
2019-02-11T05:20:39.677Z,0
2019-02-11T05:21:40.244Z,0
2019-02-11T05:22:40.806Z,0
2019-02-11T05:23:41.373Z,0
2019-02-11T05:24:41.937Z,0
2019-02-11T05:25:42.507Z,0
2019-02-11T05:26:43.072Z,0
2019-02-11T05:27:43.638Z,0
2019-02-11T05:28:44.202Z,0
2019-02-11T05:29:44.766Z,0
2019-02-11T05:30:45.332Z,0
2019-02-11T05:31:45.911Z,0
2019-02-11T05:32:46.459Z,0
2019-02-11T05:33:47.024Z,0
2019-02-11T05:34:47.601Z,0
2019-02-11T05:35:48.169Z,0
2019-02-11T05:36:48.733Z,0
2019-02-11T05:38:32.539Z,0
2019-02-11T05:39:33.106Z,0
2019-02-11T05:40:33.673Z,0
2019-02-11T05:41:34.239Z,0
2019-02-11T05:42:34.802Z,0
2019-02-11T05:43:35.368Z,0
2019-02-11T05:44:35.932Z,0
2019-02-11T05:45:36.499Z,0
2019-02-11T05:46:37.063Z,0
2019-02-11T05:47:37.630Z,0
2019-02-11T05:48:38.206Z,0
2019-02-11T05:49:38.768Z,0
2019-02-11T05:50:39.349Z,0
2019-02-11T05:51:39.909Z,0
2019-02-11T05:52:40.486Z,0
2019-02-11T05:53:41.092Z,0
2019-02-11T05:54:41.624Z,0
2019-02-11T05:55:42.195Z,0
2019-02-11T05:56:42.759Z,0
2019-02-11T05:57:43.324Z,0
2019-02-11T05:58:43.887Z,0
2019-02-11T05:59:44.451Z,0
2019-02-11T06:00:45.015Z,0
2019-02-11T06:01:45.586Z,0
2019-02-11T06:02:46.159Z,0
2019-02-11T06:03:46.724Z,0
2019-02-11T06:04:47.291Z,0
2019-02-11T06:05:47.871Z,0
2019-02-11T06:06:48.430Z,0
2019-02-11T06:07:49.005Z,0
2019-02-11T06:08:49.581Z,0
2019-02-11T06:09:50.146Z,0
2019-02-11T06:10:50.710Z,0
2019-02-11T06:11:51.273Z,0
2019-02-11T06:12:51.837Z,0
2019-02-11T06:13:52.401Z,0
2019-02-11T06:14:54.252Z,0
2019-02-11T06:15:54.525Z,0
2019-02-11T06:16:55.091Z,0
2019-02-11T06:17:55.655Z,0
2019-02-11T06:18:56.224Z,0
2019-02-11T06:19:56.786Z,0
2019-02-11T06:20:57.351Z,0
2019-02-11T06:21:57.916Z,0
2019-02-11T06:22:58.482Z,0
2019-02-11T06:23:59.044Z,0
2019-02-11T06:24:59.619Z,0
2019-02-11T06:26:00.187Z,0
2019-02-11T06:27:00.752Z,0
2019-02-11T06:28:01.320Z,0
2019-02-11T06:29:01.884Z,0
2019-02-11T06:30:02.529Z,0
2019-02-11T06:31:03.031Z,0
2019-02-11T06:32:03.595Z,0
2019-02-11T06:33:04.161Z,0
2019-02-11T06:34:04.737Z,0
2019-02-11T06:35:05.316Z,0
2019-02-11T06:36:12.576Z,0
2019-02-11T06:37:07.438Z,0
2019-02-11T06:38:08.002Z,0
2019-02-11T06:39:08.567Z,0
2019-02-11T06:40:09.135Z,4
2019-02-11T06:41:09.695Z,0
2019-02-11T06:42:10.259Z,0
2019-02-11T06:43:10.823Z,0
2019-02-11T06:44:11.388Z,0
2019-02-11T06:45:13.385Z,4
2019-02-11T06:46:13.512Z,4
2019-02-11T06:47:14.077Z,4
2019-02-11T06:48:14.642Z,0
2019-02-11T06:49:15.207Z,4
2019-02-11T06:50:15.771Z,4
2019-02-11T06:51:16.337Z,4
2019-02-11T06:52:16.900Z,4
2019-02-11T06:53:17.466Z,8
2019-02-11T06:54:18.031Z,4
2019-02-11T06:55:18.602Z,8
2019-02-11T06:56:19.161Z,12
2019-02-11T06:57:19.727Z,12
2019-02-11T06:58:20.295Z,8
2019-02-11T06:59:20.857Z,12
2019-02-11T07:00:21.420Z,8
2019-02-11T07:01:21.988Z,16
2019-02-11T07:02:23.789Z,12
2019-02-11T07:03:23.128Z,16
2019-02-11T07:04:23.695Z,20
2019-02-11T07:05:24.259Z,20
2019-02-11T07:06:24.828Z,20
2019-02-11T07:07:25.393Z,20
2019-02-11T07:08:25.958Z,20
2019-02-11T07:09:26.528Z,20
2019-02-11T07:10:27.090Z,24
2019-02-11T07:11:27.655Z,24
2019-02-11T07:12:28.222Z,24
2019-02-11T07:13:28.785Z,32
2019-02-11T07:14:29.350Z,32
2019-02-11T07:15:29.915Z,32
2019-02-11T07:16:30.491Z,32
2019-02-11T07:17:31.062Z,32
2019-02-11T07:18:31.640Z,28
2019-02-11T07:19:32.205Z,28
2019-02-11T07:20:32.773Z,32
2019-02-11T07:21:33.340Z,24
2019-02-11T07:22:33.905Z,24
2019-02-11T07:23:34.473Z,24
2019-02-11T07:24:35.042Z,20
2019-02-11T07:25:35.719Z,20
2019-02-11T07:26:36.287Z,20
2019-02-11T07:27:36.850Z,24
2019-02-11T07:28:37.417Z,28
2019-02-11T07:29:37.985Z,28
2019-02-11T07:30:38.563Z,36
2019-02-11T07:31:39.130Z,40
2019-02-11T07:32:39.696Z,36
2019-02-11T07:33:40.263Z,40
2019-02-11T07:34:40.831Z,40
2019-02-11T07:35:41.396Z,48
2019-02-11T07:36:41.961Z,56
2019-02-11T07:37:42.529Z,64
2019-02-11T07:38:43.108Z,68
2019-02-11T07:39:43.671Z,60
2019-02-11T07:40:44.490Z,60
2019-02-11T07:41:45.057Z,64
2019-02-11T07:42:45.624Z,68
2019-02-11T07:43:46.199Z,76
2019-02-11T07:44:46.756Z,72
2019-02-11T07:45:47.322Z,76
2019-02-11T07:46:47.890Z,68
2019-02-11T07:47:48.453Z,56
2019-02-11T07:48:49.019Z,60
2019-02-11T07:49:49.585Z,68
2019-02-11T07:50:50.163Z,72
2019-02-11T07:51:50.729Z,76
2019-02-11T07:52:51.296Z,72
2019-02-11T07:53:51.865Z,68
2019-02-11T07:54:52.429Z,72
2019-02-11T07:55:52.993Z,72
2019-02-11T07:56:53.570Z,76
2019-02-11T07:57:54.135Z,84
2019-02-11T07:58:54.704Z,88
2019-02-11T07:59:55.270Z,92
2019-02-11T08:00:55.848Z,96
2019-02-11T08:01:56.415Z,96
2019-02-11T08:02:56.981Z,104
2019-02-11T08:03:57.564Z,104
2019-02-11T08:04:58.126Z,104
2019-02-11T08:05:58.695Z,108
2019-02-11T08:06:59.264Z,112
2019-02-11T08:07:59.829Z,112
2019-02-11T08:09:00.396Z,92
2019-02-11T08:10:00.961Z,72
2019-02-11T08:11:01.527Z,64
2019-02-11T08:12:02.094Z,52
2019-02-11T08:13:02.660Z,64
2019-02-11T08:14:03.226Z,84
2019-02-11T08:15:03.790Z,108
2019-02-11T08:16:04.358Z,120
2019-02-11T08:17:04.925Z,108
2019-02-11T08:18:05.492Z,96
2019-02-11T08:19:06.259Z,96
2019-02-11T08:20:06.826Z,100
2019-02-11T08:21:07.397Z,92
2019-02-11T08:22:07.958Z,88
2019-02-11T08:23:13.053Z,84
2019-02-11T08:24:10.085Z,84
2019-02-11T08:25:10.652Z,92
2019-02-11T08:26:11.217Z,80
2019-02-11T08:27:11.782Z,68
2019-02-11T08:28:19.391Z,52
2019-02-11T08:29:13.909Z,56
2019-02-11T08:30:14.490Z,64
2019-02-11T08:31:15.061Z,64
2019-02-11T08:32:15.633Z,60
2019-02-11T08:33:16.198Z,68
2019-02-11T08:34:16.764Z,92
2019-02-11T08:35:17.329Z,104
2019-02-11T08:36:17.895Z,132
2019-02-11T08:37:18.463Z,108
2019-02-11T08:38:19.030Z,92
2019-02-11T08:39:19.599Z,88
2019-02-11T08:40:20.165Z,92
2019-02-11T08:41:20.733Z,88
2019-02-11T08:42:21.300Z,120
2019-02-11T08:43:21.880Z,128
2019-02-11T08:44:22.449Z,160
2019-02-11T08:45:23.016Z,120
2019-02-11T08:46:23.584Z,112
2019-02-11T08:47:24.153Z,88
2019-02-11T08:48:24.724Z,68
2019-02-11T08:49:25.294Z,60
2019-02-11T08:50:25.859Z,64
2019-02-11T08:51:26.427Z,60
2019-02-11T08:52:26.992Z,80
2019-02-11T08:53:27.559Z,80
2019-02-11T08:54:28.124Z,92
2019-02-11T08:55:28.691Z,104
2019-02-11T08:56:29.258Z,100
2019-02-11T08:57:29.826Z,100
2019-02-11T08:58:30.411Z,104
2019-02-11T08:59:30.973Z,116
2019-02-11T09:00:31.541Z,132
2019-02-11T09:01:32.112Z,124
2019-02-11T09:02:34.180Z,136
2019-02-11T09:03:34.240Z,132
2019-02-11T09:04:34.807Z,84
2019-02-11T09:05:35.374Z,72
2019-02-11T09:06:35.942Z,72
2019-02-11T09:07:36.509Z,92
2019-02-11T09:08:37.077Z,104
2019-02-11T09:09:37.644Z,100
2019-02-11T09:10:38.210Z,108
2019-02-11T09:11:38.777Z,84
2019-02-11T09:12:39.340Z,80
2019-02-11T09:13:39.906Z,80
2019-02-11T09:14:40.471Z,84
2019-02-11T09:15:41.038Z,88
2019-02-11T09:16:41.606Z,76
2019-02-11T09:17:42.174Z,72
2019-02-11T09:18:42.738Z,96
2019-02-11T09:19:43.306Z,88
2019-02-11T09:20:43.874Z,88
2019-02-11T09:21:44.440Z,120
2019-02-11T09:22:45.006Z,120
2019-02-11T09:23:45.576Z,104
2019-02-11T09:24:46.140Z,148
2019-02-11T09:25:46.706Z,172
2019-02-11T09:26:47.275Z,216
2019-02-11T09:27:47.842Z,232
2019-02-11T09:28:48.411Z,232
2019-02-11T09:29:48.980Z,248
2019-02-11T09:30:49.548Z,288
2019-02-11T09:31:50.118Z,340
2019-02-11T09:32:50.684Z,372
2019-02-11T09:33:51.253Z,372
2019-02-11T09:34:51.823Z,368
2019-02-11T09:35:52.392Z,360
2019-02-11T09:36:53.009Z,328
2019-02-11T09:37:53.578Z,288
2019-02-11T09:38:54.148Z,248
2019-02-11T09:39:54.728Z,212
2019-02-11T09:40:55.297Z,188
2019-02-11T09:41:55.866Z,192
2019-02-11T09:42:56.433Z,196
2019-02-11T09:43:57.004Z,196
2019-02-11T09:44:57.566Z,168
2019-02-11T09:46:03.729Z,168
2019-02-11T09:46:59.696Z,176
2019-02-11T09:48:00.264Z,188
2019-02-11T09:49:00.830Z,200
2019-02-11T09:50:01.402Z,224
2019-02-11T09:51:01.966Z,236
2019-02-11T09:52:02.539Z,240
2019-02-11T09:53:03.107Z,252
2019-02-11T09:54:03.672Z,264
2019-02-11T09:55:04.240Z,268
2019-02-11T09:56:04.808Z,272
2019-02-11T09:57:05.377Z,232
2019-02-11T09:58:05.945Z,208
2019-02-11T09:59:06.517Z,212
2019-02-11T10:00:07.096Z,268
2019-02-11T10:01:07.666Z,316
2019-02-11T10:02:08.337Z,328
2019-02-11T10:03:08.908Z,288
2019-02-11T10:04:09.476Z,240
2019-02-11T10:05:10.044Z,232
2019-02-11T10:06:10.616Z,240
2019-02-11T10:07:11.184Z,276
2019-02-11T10:08:11.754Z,304
2019-02-11T10:09:12.323Z,300
2019-02-11T10:10:12.891Z,292
2019-02-11T10:11:13.458Z,300
2019-02-11T10:12:21.209Z,328
2019-02-11T10:13:15.589Z,344
2019-02-11T10:14:16.158Z,364
2019-02-11T10:15:16.728Z,368
2019-02-11T10:16:17.297Z,376
2019-02-11T10:17:17.865Z,388
2019-02-11T10:18:18.433Z,392
2019-02-11T10:19:19.001Z,344
2019-02-11T10:20:19.570Z,312
2019-02-11T10:21:20.141Z,288
2019-02-11T10:22:20.958Z,256
2019-02-11T10:23:21.528Z,244
2019-02-11T10:24:22.107Z,260
2019-02-11T10:25:22.676Z,248
2019-02-11T10:26:23.246Z,228
2019-02-11T10:27:23.822Z,196
2019-02-11T10:28:24.389Z,176
2019-02-11T10:29:24.959Z,156
2019-02-11T10:30:25.526Z,148
2019-02-11T10:31:26.096Z,136
2019-02-11T10:32:26.663Z,116
2019-02-11T10:33:27.231Z,116
2019-02-11T10:34:27.798Z,128
2019-02-11T10:35:28.370Z,132
2019-02-11T10:36:28.938Z,120
2019-02-11T10:37:29.504Z,136
2019-02-11T10:38:36.284Z,148
2019-02-11T10:39:31.636Z,132
2019-02-11T10:40:32.208Z,128
2019-02-11T10:41:32.774Z,128
2019-02-11T10:42:33.341Z,128
2019-02-11T10:43:33.907Z,132
2019-02-11T10:44:34.481Z,164
2019-02-11T10:45:36.551Z,204
2019-02-11T10:46:36.615Z,208
2019-02-11T10:47:37.184Z,232
2019-02-11T10:48:37.751Z,252
2019-02-11T10:49:38.322Z,260
2019-02-11T10:50:38.890Z,236
2019-02-11T10:51:39.456Z,204
2019-02-11T10:52:40.024Z,172
2019-02-11T10:53:40.592Z,160
2019-02-11T10:54:41.160Z,144
2019-02-11T10:55:41.728Z,132
2019-02-11T10:56:42.298Z,132
2019-02-11T10:57:42.866Z,140
2019-02-11T10:58:43.433Z,144
2019-02-11T10:59:44.000Z,148
2019-02-11T11:00:44.566Z,160
2019-02-11T11:01:45.135Z,172
2019-02-11T11:02:45.705Z,192
2019-02-11T11:03:46.271Z,228
2019-02-11T11:04:46.850Z,248
2019-02-11T11:05:47.419Z,300
2019-02-11T11:06:47.991Z,316
2019-02-11T11:07:48.559Z,292
2019-02-11T11:08:49.128Z,340
2019-02-11T11:09:49.709Z,280
2019-02-11T11:10:50.279Z,336
2019-02-11T11:11:50.857Z,384
2019-02-11T11:12:51.428Z,396
2019-02-11T11:13:51.998Z,424
2019-02-11T11:14:52.564Z,428
2019-02-11T11:15:53.132Z,448
2019-02-11T11:16:53.701Z,500
2019-02-11T11:17:54.272Z,496
2019-02-11T11:18:54.842Z,440
2019-02-11T11:19:55.411Z,468
2019-02-11T11:20:55.979Z,492
2019-02-11T11:21:56.546Z,516
2019-02-11T11:22:57.115Z,604
2019-02-11T11:23:57.684Z,584
2019-02-11T11:24:58.254Z,464
2019-02-11T11:25:58.822Z,352
2019-02-11T11:26:59.401Z,296
2019-02-11T11:27:59.971Z,248
2019-02-11T11:29:00.540Z,208
2019-02-11T11:30:01.121Z,188
2019-02-11T11:31:01.689Z,164
2019-02-11T11:32:02.258Z,140
2019-02-11T11:33:02.827Z,124
2019-02-11T11:34:03.397Z,108
2019-02-11T11:35:03.961Z,80
2019-02-11T11:36:04.528Z,60
2019-02-11T11:37:05.095Z,48
2019-02-11T11:38:05.662Z,52
2019-02-11T11:39:06.231Z,56
2019-02-11T11:40:06.796Z,68
2019-02-11T11:41:07.363Z,76
2019-02-11T11:42:07.931Z,92
2019-02-11T11:43:08.502Z,112
2019-02-11T11:44:09.069Z,132
2019-02-11T11:45:09.637Z,176
2019-02-11T11:46:10.206Z,252
2019-02-11T11:47:10.774Z,280
2019-02-11T11:48:11.343Z,268
2019-02-11T11:49:11.912Z,260
2019-02-11T11:50:12.481Z,252
2019-02-11T11:51:13.052Z,256
2019-02-11T11:52:13.633Z,272
2019-02-11T11:53:14.202Z,268
2019-02-11T11:54:14.769Z,260
2019-02-11T11:55:15.346Z,276
2019-02-11T11:56:15.910Z,292
2019-02-11T11:57:16.608Z,296
2019-02-11T11:58:17.118Z,368
2019-02-11T11:59:17.687Z,324
2019-02-11T12:00:18.253Z,344
2019-02-11T12:01:19.678Z,336
2019-02-11T12:02:20.409Z,372
2019-02-11T12:03:20.965Z,392
2019-02-11T12:04:21.538Z,344
2019-02-11T12:05:22.101Z,312
2019-02-11T12:06:25.395Z,288
2019-02-11T12:07:24.249Z,292
2019-02-11T12:08:24.812Z,320
2019-02-11T12:09:25.383Z,376
2019-02-11T12:10:25.969Z,336
2019-02-11T12:11:26.529Z,372
2019-02-11T12:12:27.108Z,364
2019-02-11T12:13:27.668Z,360
2019-02-11T12:14:28.238Z,328
2019-02-11T12:15:28.816Z,316
2019-02-11T12:16:29.378Z,352
2019-02-11T12:17:29.959Z,360
2019-02-11T12:18:30.535Z,360
2019-02-11T12:19:31.125Z,364
2019-02-11T12:20:33.303Z,368
2019-02-11T12:21:32.271Z,368
2019-02-11T12:22:32.848Z,368
2019-02-11T12:23:33.518Z,368
2019-02-11T12:24:34.098Z,372
2019-02-11T12:25:34.699Z,372
2019-02-11T12:26:35.234Z,380
2019-02-11T12:27:35.803Z,388
2019-02-11T12:28:36.373Z,396
2019-02-11T12:29:36.941Z,408
2019-02-11T12:30:37.509Z,428
2019-02-11T12:31:38.078Z,460
2019-02-11T12:32:38.643Z,528
2019-02-11T12:33:39.216Z,600
2019-02-11T12:34:39.784Z,584
2019-02-11T12:35:40.355Z,448
2019-02-11T12:36:40.918Z,320
2019-02-11T12:37:41.488Z,184
2019-02-11T12:38:42.069Z,136
2019-02-11T12:39:42.638Z,152
2019-02-11T12:40:43.208Z,204
2019-02-11T12:41:43.778Z,304
2019-02-11T12:42:44.348Z,332
2019-02-11T12:43:44.922Z,292
2019-02-11T12:44:45.493Z,228
2019-02-11T12:45:46.057Z,220
2019-02-11T12:46:46.627Z,220
2019-02-11T12:47:47.197Z,236
2019-02-11T12:48:47.764Z,276
2019-02-11T12:49:48.334Z,288
2019-02-11T12:50:48.905Z,308
2019-02-11T12:51:49.474Z,336
2019-02-11T12:52:50.058Z,336
2019-02-11T12:53:50.627Z,228
2019-02-11T12:54:51.188Z,224
2019-02-11T12:55:51.754Z,216
2019-02-11T12:56:52.337Z,208
2019-02-11T12:57:52.891Z,216
2019-02-11T12:58:53.463Z,236
2019-02-11T12:59:54.032Z,252
2019-02-11T13:00:54.597Z,264
2019-02-11T13:01:55.167Z,260
2019-02-11T13:02:55.842Z,260
2019-02-11T13:03:56.315Z,256
2019-02-11T13:04:56.882Z,256
2019-02-11T13:05:57.450Z,292
2019-02-11T13:06:58.099Z,376
2019-02-11T13:07:58.677Z,384
2019-02-11T13:08:59.251Z,384
2019-02-11T13:09:59.814Z,384
2019-02-11T13:11:00.391Z,380
2019-02-11T13:12:01.003Z,376
2019-02-11T13:13:01.559Z,380
2019-02-11T13:14:02.126Z,384
2019-02-11T13:15:02.701Z,380
2019-02-11T13:16:03.709Z,376
2019-02-11T13:17:14.895Z,376
2019-02-11T13:18:06.098Z,376
2019-02-11T13:19:06.513Z,368
2019-02-11T13:20:09.792Z,364
2019-02-11T13:21:08.643Z,364
2019-02-11T13:22:09.214Z,368
2019-02-11T13:23:09.785Z,368
2019-02-11T13:24:10.356Z,368
2019-02-11T13:25:10.959Z,372
2019-02-11T13:26:11.516Z,368
2019-02-11T13:27:12.082Z,372
2019-02-11T13:28:12.657Z,372
2019-02-11T13:29:13.242Z,372
2019-02-11T13:30:13.824Z,376
2019-02-11T13:31:14.387Z,380
2019-02-11T13:32:14.982Z,380
2019-02-11T13:33:15.525Z,380
2019-02-11T13:34:16.097Z,380
2019-02-11T13:35:16.671Z,384
2019-02-11T13:36:17.243Z,388
2019-02-11T13:37:17.812Z,396
2019-02-11T13:38:18.386Z,404
2019-02-11T13:39:18.951Z,404
2019-02-11T13:40:19.547Z,400
2019-02-11T13:41:20.092Z,396
2019-02-11T13:42:20.662Z,396
2019-02-11T13:43:21.234Z,388
2019-02-11T13:44:21.807Z,344
2019-02-11T13:45:22.392Z,300
2019-02-11T13:46:22.951Z,388
2019-02-11T13:47:23.517Z,380
2019-02-11T13:48:24.084Z,380
2019-02-11T13:49:24.653Z,384
2019-02-11T13:50:25.367Z,376
2019-02-11T13:51:25.840Z,380
2019-02-11T13:52:26.393Z,384
2019-02-11T13:53:26.963Z,388
2019-02-11T13:54:27.537Z,388
2019-02-11T13:55:30.733Z,392
2019-02-11T13:56:28.702Z,404
2019-02-11T13:57:29.265Z,384
2019-02-11T13:58:29.844Z,372
2019-02-11T13:59:30.400Z,388
2019-02-11T14:00:30.998Z,392
2019-02-11T14:01:31.776Z,388
2019-02-11T14:02:32.332Z,396
2019-02-11T14:03:32.901Z,388
2019-02-11T14:04:33.475Z,380
2019-02-11T14:05:34.041Z,380
2019-02-11T14:06:34.608Z,380
2019-02-11T14:07:35.178Z,380
2019-02-11T14:08:35.758Z,380
2019-02-11T14:09:36.318Z,380
2019-02-11T14:10:36.926Z,380
2019-02-11T14:11:37.478Z,380
2019-02-11T14:12:38.073Z,380
2019-02-11T14:13:38.643Z,380
2019-02-11T14:14:39.212Z,380
2019-02-11T14:15:39.826Z,376
2019-02-11T14:16:40.375Z,380
2019-02-11T14:17:40.933Z,380
2019-02-11T14:18:41.502Z,380
2019-02-11T14:19:42.071Z,384
2019-02-11T14:20:42.652Z,384
2019-02-11T14:21:43.223Z,384
2019-02-11T14:22:43.780Z,388
2019-02-11T14:23:44.352Z,388
2019-02-11T14:24:44.941Z,392
2019-02-11T14:25:47.224Z,392
2019-02-11T14:26:47.097Z,396
2019-02-11T14:27:47.658Z,396